Aviation Digital Data Service (ADDS)

Output produced by METARs form (0536 UTC 24 May 2022)
found at http://aviationweather.gov/metar/data/
 
LSZH 240520Z 17004KT 9000 -SHRA FEW008 SCT022 BKN048 15/13 Q1008 NOSIG
LSZH 240450Z VRB03KT 9999 FEW015 SCT038 BKN050 15/14 Q1008 NOSIG
TAF LSZH 240525Z 2406/2512 VRB02KT 9999 FEW012 SCT025 BKN040 TX17/2415Z
TN15/2406Z TN11/2504Z 
     TEMPO 2406/2412 SHRA 
     PROB40 
     TEMPO 2407/2411 29010KT
       
LFSB 240530Z 26013KT 9999 FEW020TCU BKN036 BKN050 13/10 Q1009 RESHRA TEMPO 25015G25KT 4000 SHRA
LFSB 240500Z 25013G34KT 190V280 4000 SHRA FEW021TCU BKN026 BKN040 15/12 Q1008 TEMPO 4000 SHRA 25018G28KT
TAF AMD LFSB 240510Z 2406/2506 26010KT 9999 BKN040 
     TEMPO 2406/2410 -SHRA FEW030TCU 
     PROB40 
     TEMPO 2406/2409 25015G25KT 4000 SHRA SCT030TCU 
     BECMG 2501/2504 VRB04KT
       
LSZG 240520Z 23002KT 9999 SCT060 BKN075 14/13 Q1009
LSZG 240450Z 23003KT 9999 BKN042 14/13 Q1008
TAF LSZG 240525Z 2406/2415 23003KT 9999 FEW045 OVC050 
     TEMPO 2406/2410 SHRA 
     PROB30 
     TEMPO 2406/2412 28015G25KT
       
LSZB 240520Z 26007KT 240V300 9999 -DZ FEW010 BKN040 15/12 Q1009 TEMPO SHRA
LSZB 240450Z VRB02KT 9999 FEW010 BKN044 14/13 Q1009 NOSIG
TAF LSZB 240525Z 2406/2415 VRB02KT 9999 FEW010 BKN050 
     TEMPO 2406/2410 SHRA 
     PROB30 
     TEMPO 2406/2410 30010KT
       
LSGG 240520Z 20009KT 7000 SHRA FEW025 BKN040 14/10 Q1010 NOSIG
LSGG 240450Z 26004KT 200V310 9999 VCSH BKN040 15/08 Q1010 NOSIG
TAF LSGG 240525Z 2406/2512 22007KT 9999 FEW025 BKN040 TX21/2415Z TN15/2406Z
TN11/2505Z 
     BECMG 2421/2423 VRB02KT
       
LSZR 240520Z VRB02KT 4000 RA BR SCT020 BKN040 14/12 Q1009 RMK B
LSZR 240450Z 25005KT 200V290 9999 -RA SCT035 BKN050 14/11 Q1008 RMK A
TAF LSZR 240525Z 2406/2415 VRB02KT 9999 SCT030 BKN050 
     TEMPO 2406/2415 SHRA
       
LSGS 240520Z VRB01KT 9999 -RA FEW010 SCT060 15/13 Q1008
LSGS 240450Z VRB03KT 9999 FEW010 SCT060 15/13 Q1008
TAF LSGS 240525Z 2406/2415 VRB02KT 9999 FEW010 SCT060 
     PROB30 
     TEMPO 2406/2408 SHRA 
     PROB40 
     TEMPO 2412/2415 26010KT
       
LSZA 240520Z AUTO VRB01KT 9999 FEW055 OVC075 18/13 Q1007
LSZA 240450Z AUTO VRB01KT 9999 BKN050 BKN075 18/13 Q1007
TAF LSZA 240525Z 2406/2415 VRB02KT 9999 BKN060 
     PROB40 
     TEMPO 2406/2412 SHRA SCT050TCU 
     PROB30 
     TEMPO 2406/2412 TSRA SCT040CB
       
EDNY 240520Z 23003KT 190V260 9999 FEW009 BKN041 14/13 Q1008
EDNY 240450Z 25008KT 7000 FEW010 SCT041 14/13 Q1008
TAF EDNY 240500Z 2406/2506 23007KT 9999 FEW025 BKN050 
     TEMPO 2406/2411 SHRA SCT020 BKN045TCU 
     BECMG 2417/2419 VRB03KT
       
EDDS 240520Z AUTO VRB01KT CAVOK 16/12 Q1006 NOSIG
EDDS 240450Z AUTO VRB01KT 9999 SCT046 15/13 Q1006 NOSIG
TAF EDDS 240500Z 2406/2506 VRB03KT 9999 SCT025 
     BECMG 2406/2409 24008KT 
     TEMPO 2407/2409 SHRA BKN020CB 
     BECMG 2418/2421 VRB03KT
       
LOWI 240520Z 07005KT 9999 FEW007 SCT010 BKN025 16/14 Q1008 NOSIG
LOWI 240450Z 08005KT 9999 FEW008 SCT010 BKN020 16/14 Q1008 NOSIG
TAF LOWI 240515Z 2406/2506 09005KT 9999 SCT020 BKN070 TX18/2411Z TN13/2502Z 
     TEMPO 2406/2506 27008KT SHRA SCT010 FEW020CB BKN030 
     PROB30 
     TEMPO 2412/2420 12015G25KT TSRA SCT020CB BKN030 
     PROB40 
     TEMPO 2500/2506 BKN010
       
EDDM 240520Z AUTO 21007KT 9999 -RA FEW041 15/14 Q1007 NOSIG
EDDM 240450Z AUTO 21007KT 9999 BKN039 15/14 Q1007 TEMPO SHRA SCT020 BKN045TCU
TAF EDDM 240500Z 2406/2512 27008KT 9999 SCT020 BKN045 
     PROB40 
     TEMPO 2408/2416 SHRA SCT020 BKN035TCU 
     BECMG 2416/2418 21003KT 
     PROB30 
     TEMPO 2501/2506 4000 -RADZ BKN012 
     TEMPO 2509/2512 30005KT
       
LFMD 240530Z AUTO VRB03KT CAVOK 17/14 Q1006 NOSIG
LFMD 240500Z AUTO VRB02KT CAVOK 16/13 Q1006 TEMPO BKN014
TAF LFMD 240200Z 2403/2503 36005KT CAVOK 
     PROB30 
     TEMPO 2403/2406 BKN014 
     BECMG 2409/2412 10010KT 
     BECMG 2413/2415 26010KT 
     BECMG 2421/2423 VRB03KT 
     PROB30 
     TEMPO 2501/2503 BKN014
       
LFLL 240530Z 03005KT 350V060 9999 FEW045 BKN063 15/09 Q1012 NOSIG
LFLL 240500Z 01005KT 9999 FEW045 BKN060 15/10 Q1011 NOSIG
TAF LFLL 240500Z 2406/2512 36009KT CAVOK
       
LIMC 240520Z 02005KT 9999 BKN060 19/13 Q1007 NOSIG
LIMC 240450Z 01006KT 9999 SCT060 17/12 Q1007 NOSIG
TAF LIMC 240500Z 2406/2512 35007KT 9999 SCT050 
     TEMPO 2410/2421 4000 TSRA
       
LFPB 240530Z AUTO 23010KT 9999 BKN016 BKN023 11/09 Q1008 TEMPO BKN014
LFPB 240500Z AUTO 22010KT 9999 BKN015 BKN021 11/09 Q1007 TEMPO BKN013
TAF LFPB 240500Z 2406/2506 25010KT 9999 BKN018 
     PROB30 
     TEMPO 2406/2407 BKN014 
     PROB30 
     TEMPO 2408/2411 FEW020TCU 
     TEMPO 2412/2418 SCT040TCU 
     PROB40 
     TEMPO 2415/2417 25015G25KT 4000 SHRA SCT040CB 
     BECMG 2418/2421 CAVOK
       
LIPZ 240520Z 05015KT 9999 FEW015 22/19 Q1005 NOSIG
LIPZ 240450Z 05014KT 9999 BKN015 21/18 Q1005 NOSIG
TAF LIPZ 240500Z 2406/2512 05010KT 9999 BKN020 
     BECMG 2408/2410 15010KT 
     BECMG 2418/2420 05008KT 
     TEMPO 2416/2502 4000 TSRA